sensor_id;sensor_type;location;lat;lon;timestamp;P1;durP1;ratioP1;P2;durP2;ratioP2
19780;SDS011;10050;55.492;13.506;2023-04-25T00:01:13;5.00;;;4.23;;
19780;SDS011;10050;55.492;13.506;2023-04-25T00:03:38;7.57;;;4.87;;
19780;SDS011;10050;55.492;13.506;2023-04-25T00:06:05;9.83;;;4.83;;
19780;SDS011;10050;55.492;13.506;2023-04-25T00:08:31;13.13;;;5.40;;
19780;SDS011;10050;55.492;13.506;2023-04-25T00:10:58;9.30;;;5.37;;
19780;SDS011;10050;55.492;13.506;2023-04-25T00:13:24;12.50;;;6.13;;
19780;SDS011;10050;55.492;13.506;2023-04-25T00:15:50;10.33;;;5.97;;
19780;SDS011;10050;55.492;13.506;2023-04-25T00:18:18;10.40;;;6.90;;
19780;SDS011;10050;55.492;13.506;2023-04-25T00:20:44;9.53;;;6.80;;
19780;SDS011;10050;55.492;13.506;2023-04-25T00:23:12;10.93;;;6.33;;
19780;SDS011;10050;55.492;13.506;2023-04-25T00:25:43;10.57;;;6.37;;
19780;SDS011;10050;55.492;13.506;2023-04-25T00:28:12;9.07;;;6.03;;
19780;SDS011;10050;55.492;13.506;2023-04-25T00:30:38;8.60;;;6.47;;
19780;SDS011;10050;55.492;13.506;2023-04-25T00:33:04;10.33;;;6.40;;
19780;SDS011;10050;55.492;13.506;2023-04-25T00:35:30;9.33;;;6.37;;
19780;SDS011;10050;55.492;13.506;2023-04-25T00:37:56;11.53;;;6.10;;
19780;SDS011;10050;55.492;13.506;2023-04-25T00:40:21;13.37;;;6.70;;
19780;SDS011;10050;55.492;13.506;2023-04-25T00:42:47;14.33;;;6.53;;
19780;SDS011;10050;55.492;13.506;2023-04-25T00:45:14;9.73;;;5.93;;
19780;SDS011;10050;55.492;13.506;2023-04-25T00:47:40;10.53;;;5.70;;
19780;SDS011;10050;55.492;13.506;2023-04-25T00:50:08;9.13;;;5.63;;
19780;SDS011;10050;55.492;13.506;2023-04-25T00:52:34;7.93;;;5.37;;
19780;SDS011;10050;55.492;13.506;2023-04-25T00:55:02;8.90;;;4.67;;
19780;SDS011;10050;55.492;13.506;2023-04-25T00:57:28;6.90;;;4.50;;
19780;SDS011;10050;55.492;13.506;2023-04-25T00:59:54;6.97;;;4.10;;
19780;SDS011;10050;55.492;13.506;2023-04-25T01:02:20;7.43;;;4.07;;
19780;SDS011;10050;55.492;13.506;2023-04-25T01:04:46;4.33;;;3.60;;
19780;SDS011;10050;55.492;13.506;2023-04-25T01:07:13;5.70;;;3.53;;
19780;SDS011;10050;55.492;13.506;2023-04-25T01:09:40;5.57;;;3.13;;
19780;SDS011;10050;55.492;13.506;2023-04-25T01:12:06;3.43;;;3.10;;
19780;SDS011;10050;55.492;13.506;2023-04-25T01:14:32;5.27;;;2.47;;
19780;SDS011;10050;55.492;13.506;2023-04-25T01:16:58;4.93;;;2.20;;
19780;SDS011;10050;55.492;13.506;2023-04-25T01:19:23;4.47;;;2.00;;
19780;SDS011;10050;55.492;13.506;2023-04-25T01:21:50;4.53;;;1.83;;
19780;SDS011;10050;55.492;13.506;2023-04-25T01:24:16;2.73;;;1.47;;
19780;SDS011;10050;55.492;13.506;2023-04-25T01:26:42;5.10;;;2.00;;
19780;SDS011;10050;55.492;13.506;2023-04-25T01:29:15;3.20;;;1.80;;
19780;SDS011;10050;55.492;13.506;2023-04-25T01:31:42;6.93;;;2.27;;
19780;SDS011;10050;55.492;13.506;2023-04-25T01:34:09;2.33;;;1.97;;
19780;SDS011;10050;55.492;13.506;2023-04-25T01:36:36;3.67;;;1.77;;
19780;SDS011;10050;55.492;13.506;2023-04-25T01:39:01;4.03;;;2.10;;
19780;SDS011;10050;55.492;13.506;2023-04-25T01:41:27;6.17;;;2.20;;
19780;SDS011;10050;55.492;13.506;2023-04-25T01:43:53;3.97;;;1.60;;
19780;SDS011;10050;55.492;13.506;2023-04-25T01:46:19;3.40;;;2.00;;
19780;SDS011;10050;55.492;13.506;2023-04-25T01:48:45;3.37;;;1.60;;
19780;SDS011;10050;55.492;13.506;2023-04-25T01:51:11;2.17;;;1.77;;
19780;SDS011;10050;55.492;13.506;2023-04-25T01:53:37;3.63;;;1.70;;
19780;SDS011;10050;55.492;13.506;2023-04-25T01:56:04;4.37;;;2.10;;
19780;SDS011;10050;55.492;13.506;2023-04-25T01:58:30;1.93;;;1.83;;
19780;SDS011;10050;55.492;13.506;2023-04-25T02:00:56;3.03;;;1.90;;
19780;SDS011;10050;55.492;13.506;2023-04-25T02:03:22;6.43;;;1.90;;
19780;SDS011;10050;55.492;13.506;2023-04-25T02:05:47;2.10;;;1.90;;
19780;SDS011;10050;55.492;13.506;2023-04-25T02:08:13;2.50;;;2.30;;
19780;SDS011;10050;55.492;13.506;2023-04-25T02:10:39;2.87;;;2.20;;
19780;SDS011;10050;55.492;13.506;2023-04-25T02:13:05;3.00;;;1.90;;
19780;SDS011;10050;55.492;13.506;2023-04-25T02:15:31;2.30;;;1.90;;
19780;SDS011;10050;55.492;13.506;2023-04-25T02:17:56;4.30;;;2.17;;
19780;SDS011;10050;55.492;13.506;2023-04-25T02:20:23;2.10;;;1.77;;
19780;SDS011;10050;55.492;13.506;2023-04-25T02:22:49;3.63;;;2.20;;
19780;SDS011;10050;55.492;13.506;2023-04-25T02:25:16;3.33;;;2.30;;
19780;SDS011;10050;55.492;13.506;2023-04-25T02:27:42;4.87;;;2.63;;
19780;SDS011;10050;55.492;13.506;2023-04-25T02:30:08;3.20;;;2.33;;
19780;SDS011;10050;55.492;13.506;2023-04-25T02:32:34;2.57;;;2.37;;
19780;SDS011;10050;55.492;13.506;2023-04-25T02:35:00;5.80;;;3.07;;
19780;SDS011;10050;55.492;13.506;2023-04-25T02:37:32;3.23;;;2.93;;
19780;SDS011;10050;55.492;13.506;2023-04-25T02:39:58;3.03;;;2.60;;
19780;SDS011;10050;55.492;13.506;2023-04-25T02:42:24;3.07;;;2.70;;
19780;SDS011;10050;55.492;13.506;2023-04-25T02:44:50;3.00;;;2.80;;
19780;SDS011;10050;55.492;13.506;2023-04-25T02:47:16;3.97;;;2.33;;
19780;SDS011;10050;55.492;13.506;2023-04-25T02:49:42;2.63;;;2.40;;
19780;SDS011;10050;55.492;13.506;2023-04-25T02:52:07;3.03;;;2.40;;
19780;SDS011;10050;55.492;13.506;2023-04-25T02:54:33;3.50;;;2.47;;
19780;SDS011;10050;55.492;13.506;2023-04-25T02:56:59;4.97;;;2.40;;
19780;SDS011;10050;55.492;13.506;2023-04-25T02:59:25;6.43;;;2.70;;
19780;SDS011;10050;55.492;13.506;2023-04-25T03:01:51;5.00;;;2.30;;
19780;SDS011;10050;55.492;13.506;2023-04-25T03:04:17;5.40;;;2.50;;
19780;SDS011;10050;55.492;13.506;2023-04-25T03:06:44;3.50;;;2.40;;
19780;SDS011;10050;55.492;13.506;2023-04-25T03:09:09;4.27;;;2.83;;
19780;SDS011;10050;55.492;13.506;2023-04-25T03:11:36;4.70;;;2.40;;
19780;SDS011;10050;55.492;13.506;2023-04-25T03:14:03;4.60;;;2.70;;
19780;SDS011;10050;55.492;13.506;2023-04-25T03:16:29;2.97;;;2.07;;
19780;SDS011;10050;55.492;13.506;2023-04-25T03:18:55;5.00;;;2.33;;
19780;SDS011;10050;55.492;13.506;2023-04-25T03:21:22;5.33;;;2.60;;
19780;SDS011;10050;55.492;13.506;2023-04-25T03:23:47;6.77;;;2.43;;
19780;SDS011;10050;55.492;13.506;2023-04-25T03:26:13;9.17;;;2.77;;
19780;SDS011;10050;55.492;13.506;2023-04-25T03:28:39;6.00;;;3.17;;
19780;SDS011;10050;55.492;13.506;2023-04-25T03:31:05;4.37;;;2.87;;
19780;SDS011;10050;55.492;13.506;2023-04-25T03:33:31;5.57;;;2.97;;
19780;SDS011;10050;55.492;13.506;2023-04-25T03:35:56;5.23;;;2.97;;
19780;SDS011;10050;55.492;13.506;2023-04-25T03:38:22;4.00;;;3.00;;
19780;SDS011;10050;55.492;13.506;2023-04-25T03:40:48;6.90;;;3.13;;
19780;SDS011;10050;55.492;13.506;2023-04-25T03:43:15;4.20;;;2.83;;
19780;SDS011;10050;55.492;13.506;2023-04-25T03:45:41;6.13;;;2.67;;
19780;SDS011;10050;55.492;13.506;2023-04-25T03:48:07;5.83;;;2.63;;
19780;SDS011;10050;55.492;13.506;2023-04-25T03:50:32;6.53;;;2.70;;
19780;SDS011;10050;55.492;13.506;2023-04-25T03:52:58;4.23;;;2.83;;
19780;SDS011;10050;55.492;13.506;2023-04-25T03:55:24;5.30;;;3.03;;
19780;SDS011;10050;55.492;13.506;2023-04-25T03:57:49;7.87;;;3.20;;
19780;SDS011;10050;55.492;13.506;2023-04-25T04:00:15;9.67;;;3.40;;
19780;SDS011;10050;55.492;13.506;2023-04-25T04:02:41;10.83;;;4.13;;
19780;SDS011;10050;55.492;13.506;2023-04-25T04:05:07;6.13;;;3.20;;
19780;SDS011;10050;55.492;13.506;2023-04-25T04:07:32;14.00;;;3.40;;
19780;SDS011;10050;55.492;13.506;2023-04-25T04:10:01;5.57;;;3.00;;
19780;SDS011;10050;55.492;13.506;2023-04-25T04:12:27;5.90;;;3.13;;
19780;SDS011;10050;55.492;13.506;2023-04-25T04:14:52;4.33;;;2.77;;
19780;SDS011;10050;55.492;13.506;2023-04-25T04:17:18;9.20;;;3.67;;
19780;SDS011;10050;55.492;13.506;2023-04-25T04:19:44;5.90;;;3.10;;
19780;SDS011;10050;55.492;13.506;2023-04-25T04:22:09;7.40;;;3.50;;
19780;SDS011;10050;55.492;13.506;2023-04-25T04:24:35;7.97;;;2.40;;
19780;SDS011;10050;55.492;13.506;2023-04-25T04:27:01;6.30;;;2.73;;
19780;SDS011;10050;55.492;13.506;2023-04-25T04:29:26;4.73;;;2.67;;
19780;SDS011;10050;55.492;13.506;2023-04-25T04:31:52;7.23;;;2.30;;
19780;SDS011;10050;55.492;13.506;2023-04-25T04:34:18;6.63;;;2.40;;
19780;SDS011;10050;55.492;13.506;2023-04-25T04:36:44;5.70;;;3.10;;
19780;SDS011;10050;55.492;13.506;2023-04-25T04:39:11;6.20;;;2.50;;
19780;SDS011;10050;55.492;13.506;2023-04-25T04:41:37;5.17;;;2.60;;
19780;SDS011;10050;55.492;13.506;2023-04-25T04:44:04;8.83;;;2.90;;
19780;SDS011;10050;55.492;13.506;2023-04-25T04:46:31;7.90;;;2.30;;
19780;SDS011;10050;55.492;13.506;2023-04-25T04:49:03;4.97;;;2.60;;
19780;SDS011;10050;55.492;13.506;2023-04-25T04:51:29;7.83;;;2.50;;
19780;SDS011;10050;55.492;13.506;2023-04-25T04:53:56;12.80;;;3.10;;
19780;SDS011;10050;55.492;13.506;2023-04-25T04:56:23;7.20;;;3.03;;
19780;SDS011;10050;55.492;13.506;2023-04-25T04:58:50;8.47;;;3.07;;
19780;SDS011;10050;55.492;13.506;2023-04-25T05:01:17;7.93;;;2.40;;
19780;SDS011;10050;55.492;13.506;2023-04-25T05:03:43;12.37;;;3.20;;
19780;SDS011;10050;55.492;13.506;2023-04-25T05:06:08;5.80;;;2.77;;
19780;SDS011;10050;55.492;13.506;2023-04-25T05:08:34;11.43;;;3.20;;
19780;SDS011;10050;55.492;13.506;2023-04-25T05:11:01;8.67;;;2.80;;
19780;SDS011;10050;55.492;13.506;2023-04-25T05:13:27;6.93;;;2.83;;
19780;SDS011;10050;55.492;13.506;2023-04-25T05:15:52;10.87;;;3.10;;
19780;SDS011;10050;55.492;13.506;2023-04-25T05:18:18;3.53;;;2.57;;
19780;SDS011;10050;55.492;13.506;2023-04-25T05:20:44;9.50;;;2.80;;
19780;SDS011;10050;55.492;13.506;2023-04-25T05:23:09;8.57;;;2.73;;
19780;SDS011;10050;55.492;13.506;2023-04-25T05:25:35;7.93;;;2.70;;
19780;SDS011;10050;55.492;13.506;2023-04-25T05:28:01;8.77;;;3.13;;
19780;SDS011;10050;55.492;13.506;2023-04-25T05:30:27;14.93;;;2.70;;
19780;SDS011;10050;55.492;13.506;2023-04-25T05:32:53;8.07;;;2.97;;
19780;SDS011;10050;55.492;13.506;2023-04-25T05:35:18;7.10;;;2.70;;
19780;SDS011;10050;55.492;13.506;2023-04-25T05:37:44;10.33;;;2.37;;
19780;SDS011;10050;55.492;13.506;2023-04-25T05:40:12;7.93;;;2.73;;
19780;SDS011;10050;55.492;13.506;2023-04-25T05:42:38;6.83;;;2.30;;
19780;SDS011;10050;55.492;13.506;2023-04-25T05:45:04;7.00;;;1.90;;
19780;SDS011;10050;55.492;13.506;2023-04-25T05:47:31;9.43;;;2.20;;
19780;SDS011;10050;55.492;13.506;2023-04-25T05:49:57;9.87;;;2.43;;
19780;SDS011;10050;55.492;13.506;2023-04-25T05:52:22;8.07;;;2.13;;
19780;SDS011;10050;55.492;13.506;2023-04-25T05:54:48;8.10;;;2.20;;
19780;SDS011;10050;55.492;13.506;2023-04-25T05:57:20;12.47;;;2.53;;
19780;SDS011;10050;55.492;13.506;2023-04-25T05:59:50;5.93;;;2.10;;
19780;SDS011;10050;55.492;13.506;2023-04-25T06:02:17;7.97;;;2.37;;
19780;SDS011;10050;55.492;13.506;2023-04-25T06:04:43;4.90;;;2.40;;
19780;SDS011;10050;55.492;13.506;2023-04-25T06:07:09;6.87;;;2.30;;
19780;SDS011;10050;55.492;13.506;2023-04-25T06:09:35;5.97;;;2.80;;
19780;SDS011;10050;55.492;13.506;2023-04-25T06:12:00;6.20;;;2.40;;
19780;SDS011;10050;55.492;13.506;2023-04-25T06:14:26;9.43;;;2.90;;
19780;SDS011;10050;55.492;13.506;2023-04-25T06:16:52;5.77;;;2.53;;
19780;SDS011;10050;55.492;13.506;2023-04-25T06:19:18;7.70;;;2.77;;
19780;SDS011;10050;55.492;13.506;2023-04-25T06:21:43;11.20;;;2.40;;
19780;SDS011;10050;55.492;13.506;2023-04-25T06:24:09;7.80;;;2.80;;
19780;SDS011;10050;55.492;13.506;2023-04-25T06:26:35;7.87;;;2.57;;
19780;SDS011;10050;55.492;13.506;2023-04-25T06:29:01;6.40;;;2.40;;
19780;SDS011;10050;55.492;13.506;2023-04-25T06:31:27;8.67;;;2.97;;
19780;SDS011;10050;55.492;13.506;2023-04-25T06:33:53;5.73;;;2.33;;
19780;SDS011;10050;55.492;13.506;2023-04-25T06:36:20;10.57;;;3.50;;
19780;SDS011;10050;55.492;13.506;2023-04-25T06:38:50;7.83;;;2.90;;
19780;SDS011;10050;55.492;13.506;2023-04-25T06:41:17;8.30;;;3.10;;
19780;SDS011;10050;55.492;13.506;2023-04-25T06:43:43;9.17;;;3.27;;
19780;SDS011;10050;55.492;13.506;2023-04-25T06:46:09;8.27;;;3.00;;
19780;SDS011;10050;55.492;13.506;2023-04-25T06:48:35;7.60;;;2.27;;
19780;SDS011;10050;55.492;13.506;2023-04-25T06:51:01;5.40;;;2.50;;
19780;SDS011;10050;55.492;13.506;2023-04-25T06:53:26;6.00;;;2.40;;
19780;SDS011;10050;55.492;13.506;2023-04-25T06:55:52;9.40;;;2.47;;
19780;SDS011;10050;55.492;13.506;2023-04-25T06:58:18;5.23;;;2.73;;
19780;SDS011;10050;55.492;13.506;2023-04-25T07:00:43;10.07;;;2.77;;
19780;SDS011;10050;55.492;13.506;2023-04-25T07:03:09;8.80;;;2.70;;
19780;SDS011;10050;55.492;13.506;2023-04-25T07:05:35;10.17;;;3.80;;
19780;SDS011;10050;55.492;13.506;2023-04-25T07:08:01;6.37;;;2.67;;
19780;SDS011;10050;55.492;13.506;2023-04-25T07:10:28;14.37;;;3.40;;
19780;SDS011;10050;55.492;13.506;2023-04-25T07:12:53;8.80;;;3.00;;
19780;SDS011;10050;55.492;13.506;2023-04-25T07:15:19;14.07;;;3.20;;
19780;SDS011;10050;55.492;13.506;2023-04-25T07:17:45;12.43;;;3.23;;
19780;SDS011;10050;55.492;13.506;2023-04-25T07:20:11;9.00;;;3.23;;
19780;SDS011;10050;55.492;13.506;2023-04-25T07:22:36;12.17;;;3.47;;
19780;SDS011;10050;55.492;13.506;2023-04-25T07:25:02;8.70;;;3.27;;
19780;SDS011;10050;55.492;13.506;2023-04-25T07:27:29;8.03;;;3.60;;
19780;SDS011;10050;55.492;13.506;2023-04-25T07:29:55;10.17;;;2.90;;
19780;SDS011;10050;55.492;13.506;2023-04-25T07:32:21;7.17;;;3.37;;
19780;SDS011;10050;55.492;13.506;2023-04-25T07:34:46;14.03;;;4.00;;
19780;SDS011;10050;55.492;13.506;2023-04-25T07:37:12;14.50;;;4.13;;
19780;SDS011;10050;55.492;13.506;2023-04-25T07:39:39;14.90;;;4.10;;
19780;SDS011;10050;55.492;13.506;2023-04-25T07:42:05;12.67;;;3.20;;
19780;SDS011;10050;55.492;13.506;2023-04-25T07:44:33;10.97;;;3.50;;
19780;SDS011;10050;55.492;13.506;2023-04-25T07:47:07;15.03;;;3.60;;
19780;SDS011;10050;55.492;13.506;2023-04-25T07:49:37;12.40;;;3.83;;
19780;SDS011;10050;55.492;13.506;2023-04-25T07:52:03;15.60;;;3.53;;
19780;SDS011;10050;55.492;13.506;2023-04-25T07:54:32;15.10;;;3.53;;
19780;SDS011;10050;55.492;13.506;2023-04-25T07:56:58;16.17;;;3.33;;
19780;SDS011;10050;55.492;13.506;2023-04-25T07:59:24;10.80;;;4.20;;
19780;SDS011;10050;55.492;13.506;2023-04-25T08:01:50;14.73;;;4.23;;
19780;SDS011;10050;55.492;13.506;2023-04-25T08:04:16;17.63;;;4.10;;
19780;SDS011;10050;55.492;13.506;2023-04-25T08:06:42;11.03;;;4.43;;
19780;SDS011;10050;55.492;13.506;2023-04-25T08:09:07;12.60;;;3.60;;
19780;SDS011;10050;55.492;13.506;2023-04-25T08:11:34;8.27;;;3.47;;
19780;SDS011;10050;55.492;13.506;2023-04-25T08:14:00;14.43;;;3.73;;
19780;SDS011;10050;55.492;13.506;2023-04-25T08:16:26;18.63;;;4.17;;
19780;SDS011;10050;55.492;13.506;2023-04-25T08:18:52;15.83;;;3.63;;
19780;SDS011;10050;55.492;13.506;2023-04-25T08:21:18;18.67;;;4.47;;
19780;SDS011;10050;55.492;13.506;2023-04-25T08:23:43;13.03;;;4.13;;
19780;SDS011;10050;55.492;13.506;2023-04-25T08:26:09;12.73;;;4.43;;
19780;SDS011;10050;55.492;13.506;2023-04-25T08:28:35;12.60;;;4.60;;
19780;SDS011;10050;55.492;13.506;2023-04-25T08:31:01;15.23;;;5.07;;
19780;SDS011;10050;55.492;13.506;2023-04-25T08:33:26;11.93;;;4.60;;
19780;SDS011;10050;55.492;13.506;2023-04-25T08:35:52;11.63;;;4.50;;
19780;SDS011;10050;55.492;13.506;2023-04-25T08:38:18;16.47;;;4.87;;
19780;SDS011;10050;55.492;13.506;2023-04-25T08:40:44;16.53;;;4.40;;
19780;SDS011;10050;55.492;13.506;2023-04-25T08:43:15;15.97;;;3.90;;
19780;SDS011;10050;55.492;13.506;2023-04-25T08:45:44;17.77;;;5.00;;
19780;SDS011;10050;55.492;13.506;2023-04-25T08:48:11;14.43;;;5.00;;
19780;SDS011;10050;55.492;13.506;2023-04-25T08:50:56;12.33;;;4.70;;
19780;SDS011;10050;55.492;13.506;2023-04-25T08:53:26;17.70;;;4.23;;
19780;SDS011;10050;55.492;13.506;2023-04-25T08:55:53;14.47;;;4.83;;
19780;SDS011;10050;55.492;13.506;2023-04-25T08:58:20;13.43;;;4.50;;
19780;SDS011;10050;55.492;13.506;2023-04-25T09:00:47;18.57;;;5.37;;
19780;SDS011;10050;55.492;13.506;2023-04-25T09:03:13;15.73;;;5.37;;
19780;SDS011;10050;55.492;13.506;2023-04-25T09:05:40;16.50;;;4.90;;
19780;SDS011;10050;55.492;13.506;2023-04-25T09:08:06;15.53;;;4.90;;
19780;SDS011;10050;55.492;13.506;2023-04-25T09:10:32;18.47;;;5.37;;
19780;SDS011;10050;55.492;13.506;2023-04-25T09:13:02;18.23;;;5.37;;
19780;SDS011;10050;55.492;13.506;2023-04-25T09:15:28;20.40;;;5.47;;
19780;SDS011;10050;55.492;13.506;2023-04-25T09:17:57;16.37;;;5.23;;
19780;SDS011;10050;55.492;13.506;2023-04-25T09:20:23;19.73;;;5.40;;
19780;SDS011;10050;55.492;13.506;2023-04-25T09:22:49;14.47;;;5.97;;
19780;SDS011;10050;55.492;13.506;2023-04-25T09:25:33;15.77;;;5.33;;
19780;SDS011;10050;55.492;13.506;2023-04-25T09:28:05;13.20;;;4.80;;
19780;SDS011;10050;55.492;13.506;2023-04-25T09:30:32;14.87;;;5.33;;
19780;SDS011;10050;55.492;13.506;2023-04-25T09:33:05;19.27;;;4.73;;
19780;SDS011;10050;55.492;13.506;2023-04-25T09:35:39;17.10;;;5.67;;
19780;SDS011;10050;55.492;13.506;2023-04-25T09:38:10;17.87;;;4.70;;
19780;SDS011;10050;55.492;13.506;2023-04-25T09:40:43;13.87;;;4.73;;
19780;SDS011;10050;55.492;13.506;2023-04-25T09:43:19;15.40;;;4.70;;
19780;SDS011;10050;55.492;13.506;2023-04-25T09:45:46;15.93;;;5.03;;
19780;SDS011;10050;55.492;13.506;2023-04-25T09:48:22;20.67;;;5.37;;
19780;SDS011;10050;55.492;13.506;2023-04-25T09:51:03;16.47;;;4.97;;
19780;SDS011;10050;55.492;13.506;2023-04-25T09:53:34;17.03;;;4.80;;
19780;SDS011;10050;55.492;13.506;2023-04-25T09:56:03;18.90;;;4.80;;
19780;SDS011;10050;55.492;13.506;2023-04-25T09:58:30;11.50;;;4.40;;
19780;SDS011;10050;55.492;13.506;2023-04-25T10:00:58;19.03;;;5.00;;
19780;SDS011;10050;55.492;13.506;2023-04-25T10:03:29;13.83;;;4.87;;
19780;SDS011;10050;55.492;13.506;2023-04-25T10:05:59;16.77;;;5.43;;
19780;SDS011;10050;55.492;13.506;2023-04-25T10:08:28;12.27;;;5.30;;
19780;SDS011;10050;55.492;13.506;2023-04-25T10:11:01;13.30;;;4.53;;
19780;SDS011;10050;55.492;13.506;2023-04-25T10:13:29;10.83;;;4.53;;
19780;SDS011;10050;55.492;13.506;2023-04-25T10:15:59;15.17;;;4.43;;
19780;SDS011;10050;55.492;13.506;2023-04-25T10:18:26;14.87;;;4.73;;
19780;SDS011;10050;55.492;13.506;2023-04-25T10:20:57;14.70;;;4.10;;
19780;SDS011;10050;55.492;13.506;2023-04-25T10:23:25;14.27;;;4.03;;
19780;SDS011;10050;55.492;13.506;2023-04-25T10:25:51;13.47;;;4.47;;
19780;SDS011;10050;55.492;13.506;2023-04-25T10:28:18;13.43;;;4.43;;
19780;SDS011;10050;55.492;13.506;2023-04-25T10:30:57;8.97;;;4.00;;
19780;SDS011;10050;55.492;13.506;2023-04-25T10:33:37;14.37;;;4.63;;
19780;SDS011;10050;55.492;13.506;2023-04-25T10:36:14;12.93;;;4.10;;
19780;SDS011;10050;55.492;13.506;2023-04-25T10:38:42;11.37;;;4.07;;
19780;SDS011;10050;55.492;13.506;2023-04-25T10:41:09;15.07;;;4.33;;
19780;SDS011;10050;55.492;13.506;2023-04-25T10:43:37;12.97;;;4.43;;
19780;SDS011;10050;55.492;13.506;2023-04-25T10:46:23;11.60;;;4.57;;
19780;SDS011;10050;55.492;13.506;2023-04-25T10:49:00;17.47;;;4.07;;
19780;SDS011;10050;55.492;13.506;2023-04-25T10:56:27;12.10;;;3.43;;
19780;SDS011;10050;55.492;13.506;2023-04-25T11:01:43;10.70;;;3.90;;
19780;SDS011;10050;55.492;13.506;2023-04-25T11:09:23;12.13;;;3.40;;
19780;SDS011;10050;55.492;13.506;2023-04-25T11:11:58;17.50;;;3.90;;
19780;SDS011;10050;55.492;13.506;2023-04-25T11:14:25;12.27;;;4.13;;
19780;SDS011;10050;55.492;13.506;2023-04-25T11:16:58;21.27;;;4.73;;
19780;SDS011;10050;55.492;13.506;2023-04-25T11:19:28;12.97;;;3.83;;
19780;SDS011;10050;55.492;13.506;2023-04-25T11:21:55;11.43;;;3.90;;
19780;SDS011;10050;55.492;13.506;2023-04-25T11:24:31;8.77;;;3.77;;
19780;SDS011;10050;55.492;13.506;2023-04-25T11:26:58;16.27;;;4.27;;
19780;SDS011;10050;55.492;13.506;2023-04-25T11:29:27;10.83;;;4.23;;
19780;SDS011;10050;55.492;13.506;2023-04-25T11:31:54;11.43;;;3.97;;
19780;SDS011;10050;55.492;13.506;2023-04-25T11:34:22;14.57;;;4.50;;
19780;SDS011;10050;55.492;13.506;2023-04-25T11:36:50;12.07;;;3.33;;
19780;SDS011;10050;55.492;13.506;2023-04-25T11:39:17;15.67;;;3.90;;
19780;SDS011;10050;55.492;13.506;2023-04-25T11:41:43;14.57;;;4.03;;
19780;SDS011;10050;55.492;13.506;2023-04-25T11:44:09;14.37;;;3.40;;
19780;SDS011;10050;55.492;13.506;2023-04-25T11:46:35;12.93;;;3.87;;
19780;SDS011;10050;55.492;13.506;2023-04-25T11:49:00;16.83;;;3.50;;
19780;SDS011;10050;55.492;13.506;2023-04-25T11:51:27;11.53;;;3.80;;
19780;SDS011;10050;55.492;13.506;2023-04-25T11:53:52;9.77;;;3.20;;
19780;SDS011;10050;55.492;13.506;2023-04-25T11:56:18;10.77;;;3.63;;
19780;SDS011;10050;55.492;13.506;2023-04-25T11:58:55;13.17;;;3.90;;
19780;SDS011;10050;55.492;13.506;2023-04-25T12:04:15;10.43;;;3.43;;
19780;SDS011;10050;55.492;13.506;2023-04-25T12:06:44;12.87;;;2.93;;
19780;SDS011;10050;55.492;13.506;2023-04-25T12:09:14;12.47;;;3.20;;
19780;SDS011;10050;55.492;13.506;2023-04-25T12:11:47;12.53;;;3.27;;
19780;SDS011;10050;55.492;13.506;2023-04-25T12:14:21;9.53;;;3.10;;
19780;SDS011;10050;55.492;13.506;2023-04-25T12:16:52;9.37;;;3.67;;
19780;SDS011;10050;55.492;13.506;2023-04-25T12:19:21;10.60;;;3.40;;
19780;SDS011;10050;55.492;13.506;2023-04-25T12:21:47;10.57;;;3.50;;
19780;SDS011;10050;55.492;13.506;2023-04-25T12:24:17;8.97;;;2.93;;
19780;SDS011;10050;55.492;13.506;2023-04-25T12:26:59;11.00;;;3.07;;
19780;SDS011;10050;55.492;13.506;2023-04-25T12:29:28;9.47;;;2.90;;
19780;SDS011;10050;55.492;13.506;2023-04-25T12:31:55;13.40;;;3.47;;
19780;SDS011;10050;55.492;13.506;2023-04-25T12:34:21;10.97;;;3.60;;
19780;SDS011;10050;55.492;13.506;2023-04-25T12:36:48;16.70;;;3.73;;
19780;SDS011;10050;55.492;13.506;2023-04-25T12:39:17;9.10;;;3.80;;
19780;SDS011;10050;55.492;13.506;2023-04-25T12:41:44;9.23;;;3.47;;
19780;SDS011;10050;55.492;13.506;2023-04-25T12:44:11;12.00;;;4.27;;
19780;SDS011;10050;55.492;13.506;2023-04-25T12:46:37;10.37;;;3.77;;
19780;SDS011;10050;55.492;13.506;2023-04-25T12:49:03;14.33;;;4.83;;
19780;SDS011;10050;55.492;13.506;2023-04-25T12:51:33;11.40;;;4.10;;
19780;SDS011;10050;55.492;13.506;2023-04-25T12:54:01;6.73;;;3.50;;
19780;SDS011;10050;55.492;13.506;2023-04-25T12:56:29;15.50;;;4.43;;
19780;SDS011;10050;55.492;13.506;2023-04-25T12:58:55;9.70;;;4.07;;
19780;SDS011;10050;55.492;13.506;2023-04-25T13:01:21;11.70;;;4.53;;
19780;SDS011;10050;55.492;13.506;2023-04-25T13:03:47;12.37;;;3.90;;
19780;SDS011;10050;55.492;13.506;2023-04-25T13:06:14;11.43;;;4.10;;
19780;SDS011;10050;55.492;13.506;2023-04-25T13:08:40;6.50;;;3.13;;
19780;SDS011;10050;55.492;13.506;2023-04-25T13:11:07;8.33;;;3.17;;
19780;SDS011;10050;55.492;13.506;2023-04-25T13:13:33;12.10;;;3.47;;
19780;SDS011;10050;55.492;13.506;2023-04-25T13:16:02;11.53;;;3.40;;
19780;SDS011;10050;55.492;13.506;2023-04-25T13:18:29;5.87;;;3.17;;
19780;SDS011;10050;55.492;13.506;2023-04-25T13:20:56;6.57;;;2.97;;
19780;SDS011;10050;55.492;13.506;2023-04-25T13:23:22;9.47;;;3.47;;
19780;SDS011;10050;55.492;13.506;2023-04-25T13:25:48;7.30;;;3.10;;
19780;SDS011;10050;55.492;13.506;2023-04-25T13:28:14;7.03;;;2.83;;
19780;SDS011;10050;55.492;13.506;2023-04-25T13:30:40;11.53;;;3.37;;
19780;SDS011;10050;55.492;13.506;2023-04-25T13:33:06;9.60;;;3.10;;
19780;SDS011;10050;55.492;13.506;2023-04-25T13:35:32;9.40;;;3.40;;
19780;SDS011;10050;55.492;13.506;2023-04-25T13:37:59;13.43;;;3.53;;
19780;SDS011;10050;55.492;13.506;2023-04-25T13:40:25;9.27;;;3.83;;
19780;SDS011;10050;55.492;13.506;2023-04-25T13:42:52;10.10;;;3.47;;
19780;SDS011;10050;55.492;13.506;2023-04-25T13:45:18;9.70;;;3.40;;
19780;SDS011;10050;55.492;13.506;2023-04-25T13:47:44;7.50;;;3.00;;
19780;SDS011;10050;55.492;13.506;2023-04-25T13:50:10;11.10;;;3.80;;
19780;SDS011;10050;55.492;13.506;2023-04-25T13:52:36;11.97;;;3.30;;
19780;SDS011;10050;55.492;13.506;2023-04-25T13:55:01;8.07;;;2.90;;
19780;SDS011;10050;55.492;13.506;2023-04-25T13:57:29;7.33;;;2.90;;
19780;SDS011;10050;55.492;13.506;2023-04-25T13:59:55;6.03;;;2.67;;
19780;SDS011;10050;55.492;13.506;2023-04-25T14:02:21;8.00;;;3.10;;
19780;SDS011;10050;55.492;13.506;2023-04-25T14:04:47;9.90;;;3.20;;
19780;SDS011;10050;55.492;13.506;2023-04-25T14:07:13;6.37;;;3.00;;
19780;SDS011;10050;55.492;13.506;2023-04-25T14:09:41;11.53;;;2.87;;
19780;SDS011;10050;55.492;13.506;2023-04-25T14:12:07;9.17;;;2.90;;
19780;SDS011;10050;55.492;13.506;2023-04-25T14:14:32;10.60;;;3.43;;
19780;SDS011;10050;55.492;13.506;2023-04-25T14:16:58;10.47;;;3.13;;
19780;SDS011;10050;55.492;13.506;2023-04-25T14:19:24;7.17;;;3.27;;
19780;SDS011;10050;55.492;13.506;2023-04-25T14:21:50;6.67;;;3.10;;
19780;SDS011;10050;55.492;13.506;2023-04-25T14:24:15;6.27;;;3.20;;
19780;SDS011;10050;55.492;13.506;2023-04-25T14:26:41;7.63;;;2.70;;
19780;SDS011;10050;55.492;13.506;2023-04-25T14:29:08;6.17;;;2.90;;
19780;SDS011;10050;55.492;13.506;2023-04-25T14:31:36;5.37;;;2.13;;
19780;SDS011;10050;55.492;13.506;2023-04-25T14:34:03;10.37;;;3.07;;
19780;SDS011;10050;55.492;13.506;2023-04-25T14:36:29;7.47;;;2.67;;
19780;SDS011;10050;55.492;13.506;2023-04-25T14:38:56;7.50;;;2.73;;
19780;SDS011;10050;55.492;13.506;2023-04-25T14:41:22;5.47;;;2.53;;
19780;SDS011;10050;55.492;13.506;2023-04-25T14:43:48;8.63;;;2.63;;